sensor_id;sensor_type;location;lat;lon;timestamp;temperature;humidity
45137;DHT22;30894;51.740;19.498;2022-10-17T00:02:04;14.40;99.90
45137;DHT22;30894;51.740;19.498;2022-10-17T00:04:30;14.30;99.90
45137;DHT22;30894;51.740;19.498;2022-10-17T00:06:57;14.20;99.90
45137;DHT22;30894;51.740;19.498;2022-10-17T00:09:23;14.10;99.90
45137;DHT22;30894;51.740;19.498;2022-10-17T00:11:49;14.00;99.90
45137;DHT22;30894;51.740;19.498;2022-10-17T00:14:15;13.90;99.90
45137;DHT22;30894;51.740;19.498;2022-10-17T00:16:41;13.90;99.90
45137;DHT22;30894;51.740;19.498;2022-10-17T00:19:07;13.80;99.90
45137;DHT22;30894;51.740;19.498;2022-10-17T00:21:34;13.70;99.90
45137;DHT22;30894;51.740;19.498;2022-10-17T00:24:00;13.60;99.90
45137;DHT22;30894;51.740;19.498;2022-10-17T00:26:26;13.60;99.90
45137;DHT22;30894;51.740;19.498;2022-10-17T00:28:55;13.50;99.90
45137;DHT22;30894;51.740;19.498;2022-10-17T00:31:24;13.50;99.90
45137;DHT22;30894;51.740;19.498;2022-10-17T00:33:51;13.40;99.90
45137;DHT22;30894;51.740;19.498;2022-10-17T00:36:20;13.30;99.90
45137;DHT22;30894;51.740;19.498;2022-10-17T00:38:54;13.30;99.90
45137;DHT22;30894;51.740;19.498;2022-10-17T00:41:25;13.30;99.90
45137;DHT22;30894;51.740;19.498;2022-10-17T00:43:54;13.40;99.90
45137;DHT22;30894;51.740;19.498;2022-10-17T00:46:25;13.50;99.90
45137;DHT22;30894;51.740;19.498;2022-10-17T00:48:53;13.70;99.90
45137;DHT22;30894;51.740;19.498;2022-10-17T00:51:26;13.80;99.90
45137;DHT22;30894;51.740;19.498;2022-10-17T00:53:57;13.90;99.90
45137;DHT22;30894;51.740;19.498;2022-10-17T00:56:25;14.00;99.90
45137;DHT22;30894;51.740;19.498;2022-10-17T00:58:51;14.00;99.90
45137;DHT22;30894;51.740;19.498;2022-10-17T01:01:17;14.10;99.90
45137;DHT22;30894;51.740;19.498;2022-10-17T01:03:43;14.10;99.90
45137;DHT22;30894;51.740;19.498;2022-10-17T01:06:09;14.10;99.90
45137;DHT22;30894;51.740;19.498;2022-10-17T01:08:35;14.00;99.90
45137;DHT22;30894;51.740;19.498;2022-10-17T01:23:14;13.40;99.90
45137;DHT22;30894;51.740;19.498;2022-10-17T01:31:34;13.20;99.90
45137;DHT22;30894;51.740;19.498;2022-10-17T01:34:23;13.20;99.90
45137;DHT22;30894;51.740;19.498;2022-10-17T01:37:14;13.10;99.90
45137;DHT22;30894;51.740;19.498;2022-10-17T01:40:06;13.00;99.90
45137;DHT22;30894;51.740;19.498;2022-10-17T01:42:44;13.00;99.90
45137;DHT22;30894;51.740;19.498;2022-10-17T01:45:35;13.00;99.90
45137;DHT22;30894;51.740;19.498;2022-10-17T01:48:08;12.90;99.90
45137;DHT22;30894;51.740;19.498;2022-10-17T01:50:46;12.90;99.90
45137;DHT22;30894;51.740;19.498;2022-10-17T01:53:27;12.90;99.90
45137;DHT22;30894;51.740;19.498;2022-10-17T01:56:00;12.80;99.90
45137;DHT22;30894;51.740;19.498;2022-10-17T01:58:33;12.80;99.90
45137;DHT22;30894;51.740;19.498;2022-10-17T02:01:05;12.80;99.90
45137;DHT22;30894;51.740;19.498;2022-10-17T02:03:33;12.80;99.90
45137;DHT22;30894;51.740;19.498;2022-10-17T02:06:02;12.80;99.90
45137;DHT22;30894;51.740;19.498;2022-10-17T02:08:45;12.80;99.90
45137;DHT22;30894;51.740;19.498;2022-10-17T02:14:40;12.80;99.90
45137;DHT22;30894;51.740;19.498;2022-10-17T02:22:37;12.90;99.90
45137;DHT22;30894;51.740;19.498;2022-10-17T02:25:13;12.80;99.90
45137;DHT22;30894;51.740;19.498;2022-10-17T02:30:59;12.80;99.90
45137;DHT22;30894;51.740;19.498;2022-10-17T02:33:42;12.90;99.90
45137;DHT22;30894;51.740;19.498;2022-10-17T02:36:16;12.90;99.90
45137;DHT22;30894;51.740;19.498;2022-10-17T02:38:45;12.80;99.90
45137;DHT22;30894;51.740;19.498;2022-10-17T02:41:14;12.90;99.90
45137;DHT22;30894;51.740;19.498;2022-10-17T02:43:42;12.90;99.90
45137;DHT22;30894;51.740;19.498;2022-10-17T02:46:11;12.80;99.90
45137;DHT22;30894;51.740;19.498;2022-10-17T02:48:52;12.80;99.90
45137;DHT22;30894;51.740;19.498;2022-10-17T02:51:41;12.80;99.90
45137;DHT22;30894;51.740;19.498;2022-10-17T02:54:23;12.80;99.90
45137;DHT22;30894;51.740;19.498;2022-10-17T02:57:04;12.80;99.90
45137;DHT22;30894;51.740;19.498;2022-10-17T02:59:34;12.70;99.90
45137;DHT22;30894;51.740;19.498;2022-10-17T03:02:05;12.70;99.90
45137;DHT22;30894;51.740;19.498;2022-10-17T03:04:32;12.70;99.90
45137;DHT22;30894;51.740;19.498;2022-10-17T03:07:01;12.70;99.90
45137;DHT22;30894;51.740;19.498;2022-10-17T03:09:27;12.70;99.90
45137;DHT22;30894;51.740;19.498;2022-10-17T03:11:53;12.70;99.90
45137;DHT22;30894;51.740;19.498;2022-10-17T03:14:20;12.60;99.90
45137;DHT22;30894;51.740;19.498;2022-10-17T03:16:46;12.60;99.90
45137;DHT22;30894;51.740;19.498;2022-10-17T03:19:12;12.50;99.90
45137;DHT22;30894;51.740;19.498;2022-10-17T03:21:37;12.40;99.90
45137;DHT22;30894;51.740;19.498;2022-10-17T03:24:04;12.50;99.90
45137;DHT22;30894;51.740;19.498;2022-10-17T03:26:30;12.40;99.90
45137;DHT22;30894;51.740;19.498;2022-10-17T03:28:56;12.40;99.90
45137;DHT22;30894;51.740;19.498;2022-10-17T03:31:22;12.40;99.90
45137;DHT22;30894;51.740;19.498;2022-10-17T03:33:48;12.40;99.90
45137;DHT22;30894;51.740;19.498;2022-10-17T03:36:17;12.40;99.90
45137;DHT22;30894;51.740;19.498;2022-10-17T03:38:44;12.50;99.90
45137;DHT22;30894;51.740;19.498;2022-10-17T03:41:11;12.40;99.90
45137;DHT22;30894;51.740;19.498;2022-10-17T03:43:37;12.40;99.90
45137;DHT22;30894;51.740;19.498;2022-10-17T03:46:04;12.40;99.90
45137;DHT22;30894;51.740;19.498;2022-10-17T03:48:31;12.40;99.90
45137;DHT22;30894;51.740;19.498;2022-10-17T03:51:06;12.40;99.90
45137;DHT22;30894;51.740;19.498;2022-10-17T03:53:33;12.40;99.90
45137;DHT22;30894;51.740;19.498;2022-10-17T03:56:13;12.40;99.90
45137;DHT22;30894;51.740;19.498;2022-10-17T03:58:41;12.40;99.90
45137;DHT22;30894;51.740;19.498;2022-10-17T04:01:09;12.40;99.90
45137;DHT22;30894;51.740;19.498;2022-10-17T04:03:37;12.30;99.90
45137;DHT22;30894;51.740;19.498;2022-10-17T04:06:04;12.30;99.90
45137;DHT22;30894;51.740;19.498;2022-10-17T04:08:32;12.30;99.90
45137;DHT22;30894;51.740;19.498;2022-10-17T04:10:59;12.30;99.90
45137;DHT22;30894;51.740;19.498;2022-10-17T04:13:27;12.20;99.90
45137;DHT22;30894;51.740;19.498;2022-10-17T04:16:05;12.20;99.90
45137;DHT22;30894;51.740;19.498;2022-10-17T04:18:34;12.20;99.90
45137;DHT22;30894;51.740;19.498;2022-10-17T04:21:03;12.20;99.90
45137;DHT22;30894;51.740;19.498;2022-10-17T04:23:32;12.20;99.90
45137;DHT22;30894;51.740;19.498;2022-10-17T04:25:59;12.10;99.90
45137;DHT22;30894;51.740;19.498;2022-10-17T04:28:29;12.10;99.90
45137;DHT22;30894;51.740;19.498;2022-10-17T04:31:00;12.10;99.90
45137;DHT22;30894;51.740;19.498;2022-10-17T04:33:28;12.10;99.90
45137;DHT22;30894;51.740;19.498;2022-10-17T04:35:59;12.10;99.90
45137;DHT22;30894;51.740;19.498;2022-10-17T04:38:27;12.10;99.90
45137;DHT22;30894;51.740;19.498;2022-10-17T04:40:56;12.10;99.90
45137;DHT22;30894;51.740;19.498;2022-10-17T04:43:32;12.00;99.90
45137;DHT22;30894;51.740;19.498;2022-10-17T04:46:00;12.00;99.90
45137;DHT22;30894;51.740;19.498;2022-10-17T04:48:29;11.90;99.90
45137;DHT22;30894;51.740;19.498;2022-10-17T04:51:05;11.90;99.90
45137;DHT22;30894;51.740;19.498;2022-10-17T04:53:34;11.80;99.90
45137;DHT22;30894;51.740;19.498;2022-10-17T04:56:10;11.80;99.90
45137;DHT22;30894;51.740;19.498;2022-10-17T04:58:38;11.80;99.90
45137;DHT22;30894;51.740;19.498;2022-10-17T05:01:10;11.80;99.90
45137;DHT22;30894;51.740;19.498;2022-10-17T05:03:38;11.80;99.90
45137;DHT22;30894;51.740;19.498;2022-10-17T05:06:06;11.80;99.90
45137;DHT22;30894;51.740;19.498;2022-10-17T05:08:34;11.90;99.90
45137;DHT22;30894;51.740;19.498;2022-10-17T05:11:00;11.90;99.90
45137;DHT22;30894;51.740;19.498;2022-10-17T05:13:26;11.90;99.90
45137;DHT22;30894;51.740;19.498;2022-10-17T05:15:52;12.00;99.90
45137;DHT22;30894;51.740;19.498;2022-10-17T05:18:18;12.00;99.90
45137;DHT22;30894;51.740;19.498;2022-10-17T05:20:44;12.00;99.90
45137;DHT22;30894;51.740;19.498;2022-10-17T05:23:10;12.00;99.90
45137;DHT22;30894;51.740;19.498;2022-10-17T05:25:37;12.10;99.90
45137;DHT22;30894;51.740;19.498;2022-10-17T05:28:04;12.00;99.90
45137;DHT22;30894;51.740;19.498;2022-10-17T05:30:31;12.10;99.90
45137;DHT22;30894;51.740;19.498;2022-10-17T05:32:57;12.10;99.90
45137;DHT22;30894;51.740;19.498;2022-10-17T05:35:24;12.10;99.90
45137;DHT22;30894;51.740;19.498;2022-10-17T05:37:50;12.20;99.90
45137;DHT22;30894;51.740;19.498;2022-10-17T05:40:16;12.30;99.90
45137;DHT22;30894;51.740;19.498;2022-10-17T05:42:46;12.30;99.90
45137;DHT22;30894;51.740;19.498;2022-10-17T05:45:15;12.40;99.90
45137;DHT22;30894;51.740;19.498;2022-10-17T05:47:41;12.50;99.90
45137;DHT22;30894;51.740;19.498;2022-10-17T05:50:07;12.60;99.90
45137;DHT22;30894;51.740;19.498;2022-10-17T05:52:34;12.70;99.90
45137;DHT22;30894;51.740;19.498;2022-10-17T05:55:00;12.90;99.90
45137;DHT22;30894;51.740;19.498;2022-10-17T05:57:27;13.00;99.90
45137;DHT22;30894;51.740;19.498;2022-10-17T05:59:53;13.20;99.90
45137;DHT22;30894;51.740;19.498;2022-10-17T06:02:19;13.40;99.90
45137;DHT22;30894;51.740;19.498;2022-10-17T06:04:46;13.50;99.90
45137;DHT22;30894;51.740;19.498;2022-10-17T06:07:16;13.60;99.90
45137;DHT22;30894;51.740;19.498;2022-10-17T06:09:42;13.80;99.90
45137;DHT22;30894;51.740;19.498;2022-10-17T06:12:08;14.00;99.90
45137;DHT22;30894;51.740;19.498;2022-10-17T06:14:34;14.30;99.90
45137;DHT22;30894;51.740;19.498;2022-10-17T06:17:00;14.50;99.90
45137;DHT22;30894;51.740;19.498;2022-10-17T06:19:26;14.70;99.90
45137;DHT22;30894;51.740;19.498;2022-10-17T06:21:54;15.00;99.90
45137;DHT22;30894;51.740;19.498;2022-10-17T06:24:19;15.30;99.90
45137;DHT22;30894;51.740;19.498;2022-10-17T06:26:46;15.60;99.90
45137;DHT22;30894;51.740;19.498;2022-10-17T06:29:14;15.90;99.90
45137;DHT22;30894;51.740;19.498;2022-10-17T06:31:40;16.10;99.90
45137;DHT22;30894;51.740;19.498;2022-10-17T06:34:06;16.40;99.90
45137;DHT22;30894;51.740;19.498;2022-10-17T06:36:32;16.80;99.90
45137;DHT22;30894;51.740;19.498;2022-10-17T06:38:58;17.20;99.90
45137;DHT22;30894;51.740;19.498;2022-10-17T06:41:26;17.40;99.90
45137;DHT22;30894;51.740;19.498;2022-10-17T06:43:52;17.60;99.90
45137;DHT22;30894;51.740;19.498;2022-10-17T06:46:20;17.90;99.90
45137;DHT22;30894;51.740;19.498;2022-10-17T06:48:46;18.20;99.90
45137;DHT22;30894;51.740;19.498;2022-10-17T06:51:12;18.30;99.70
45137;DHT22;30894;51.740;19.498;2022-10-17T06:53:39;18.50;99.10
45137;DHT22;30894;51.740;19.498;2022-10-17T06:56:07;18.70;98.60
45137;DHT22;30894;51.740;19.498;2022-10-17T06:58:35;19.00;97.90
45137;DHT22;30894;51.740;19.498;2022-10-17T07:01:10;19.30;97.00
45137;DHT22;30894;51.740;19.498;2022-10-17T07:03:38;19.50;96.30
45137;DHT22;30894;51.740;19.498;2022-10-17T07:06:08;19.60;95.60
45137;DHT22;30894;51.740;19.498;2022-10-17T07:08:40;19.90;95.10
45137;DHT22;30894;51.740;19.498;2022-10-17T07:11:17;20.20;94.50
45137;DHT22;30894;51.740;19.498;2022-10-17T07:13:45;20.50;93.60
45137;DHT22;30894;51.740;19.498;2022-10-17T07:16:12;20.60;93.10
45137;DHT22;30894;51.740;19.498;2022-10-17T07:18:39;20.80;92.70
45137;DHT22;30894;51.740;19.498;2022-10-17T07:21:06;20.90;92.30
45137;DHT22;30894;51.740;19.498;2022-10-17T07:23:34;21.10;91.90
45137;DHT22;30894;51.740;19.498;2022-10-17T07:26:08;21.30;91.50
45137;DHT22;30894;51.740;19.498;2022-10-17T07:28:37;21.70;91.00
45137;DHT22;30894;51.740;19.498;2022-10-17T07:31:09;22.00;90.30
45137;DHT22;30894;51.740;19.498;2022-10-17T07:33:39;22.30;89.50
45137;DHT22;30894;51.740;19.498;2022-10-17T07:36:06;22.40;88.40
45137;DHT22;30894;51.740;19.498;2022-10-17T07:38:33;22.40;88.30
45137;DHT22;30894;51.740;19.498;2022-10-17T07:41:01;22.60;87.90
45137;DHT22;30894;51.740;19.498;2022-10-17T07:43:29;22.90;86.90
45137;DHT22;30894;51.740;19.498;2022-10-17T07:45:56;23.00;86.00
45137;DHT22;30894;51.740;19.498;2022-10-17T07:48:23;23.10;85.50
45137;DHT22;30894;51.740;19.498;2022-10-17T07:50:51;23.20;85.20
45137;DHT22;30894;51.740;19.498;2022-10-17T07:53:17;23.40;84.70
45137;DHT22;30894;51.740;19.498;2022-10-17T07:55:44;23.60;83.80
45137;DHT22;30894;51.740;19.498;2022-10-17T07:58:11;23.90;83.20
45137;DHT22;30894;51.740;19.498;2022-10-17T08:00:38;23.90;82.70
45137;DHT22;30894;51.740;19.498;2022-10-17T08:03:05;23.90;82.30
45137;DHT22;30894;51.740;19.498;2022-10-17T08:05:32;24.00;82.30
45137;DHT22;30894;51.740;19.498;2022-10-17T08:07:59;24.30;81.90
45137;DHT22;30894;51.740;19.498;2022-10-17T08:10:26;24.50;81.10
45137;DHT22;30894;51.740;19.498;2022-10-17T08:12:55;24.70;80.40
45137;DHT22;30894;51.740;19.498;2022-10-17T08:15:22;25.00;79.70
45137;DHT22;30894;51.740;19.498;2022-10-17T08:17:49;25.20;79.10
45137;DHT22;30894;51.740;19.498;2022-10-17T08:20:15;25.30;78.70
45137;DHT22;30894;51.740;19.498;2022-10-17T08:22:41;25.30;78.30
45137;DHT22;30894;51.740;19.498;2022-10-17T08:25:08;25.50;78.00
45137;DHT22;30894;51.740;19.498;2022-10-17T08:27:35;25.70;77.40
45137;DHT22;30894;51.740;19.498;2022-10-17T08:30:04;26.00;76.90
45137;DHT22;30894;51.740;19.498;2022-10-17T08:32:32;26.30;76.10
45137;DHT22;30894;51.740;19.498;2022-10-17T08:35:00;26.70;75.30
45137;DHT22;30894;51.740;19.498;2022-10-17T08:37:26;27.00;74.60
45137;DHT22;30894;51.740;19.498;2022-10-17T08:39:54;27.20;74.00
45137;DHT22;30894;51.740;19.498;2022-10-17T08:42:33;27.30;73.70
45137;DHT22;30894;51.740;19.498;2022-10-17T08:48:07;28.00;72.60
45137;DHT22;30894;51.740;19.498;2022-10-17T08:53:28;28.30;71.50
45137;DHT22;30894;51.740;19.498;2022-10-17T08:55:57;28.60;71.10
45137;DHT22;30894;51.740;19.498;2022-10-17T08:58:31;28.80;70.90
45137;DHT22;30894;51.740;19.498;2022-10-17T09:07:09;29.40;69.50
45137;DHT22;30894;51.740;19.498;2022-10-17T09:12:59;29.70;69.00
45137;DHT22;30894;51.740;19.498;2022-10-17T09:15:52;29.90;68.70
45137;DHT22;30894;51.740;19.498;2022-10-17T09:18:34;30.30;68.20
45137;DHT22;30894;51.740;19.498;2022-10-17T09:21:18;30.50;67.70
45137;DHT22;30894;51.740;19.498;2022-10-17T09:23:58;30.80;67.40
45137;DHT22;30894;51.740;19.498;2022-10-17T09:26:28;31.10;67.10
45137;DHT22;30894;51.740;19.498;2022-10-17T09:28:56;31.20;66.60
45137;DHT22;30894;51.740;19.498;2022-10-17T09:31:28;31.30;66.60
45137;DHT22;30894;51.740;19.498;2022-10-17T09:33:59;31.50;66.30
45137;DHT22;30894;51.740;19.498;2022-10-17T09:36:39;31.80;66.10
45137;DHT22;30894;51.740;19.498;2022-10-17T09:39:15;32.10;65.60
45137;DHT22;30894;51.740;19.498;2022-10-17T09:41:52;32.40;65.20
45137;DHT22;30894;51.740;19.498;2022-10-17T09:44:50;32.50;64.90
45137;DHT22;30894;51.740;19.498;2022-10-17T09:50:29;32.70;64.60
45137;DHT22;30894;51.740;19.498;2022-10-17T09:53:01;32.70;64.70
45137;DHT22;30894;51.740;19.498;2022-10-17T09:55:38;32.70;64.60
45137;DHT22;30894;51.740;19.498;2022-10-17T09:58:07;32.70;64.60
45137;DHT22;30894;51.740;19.498;2022-10-17T10:00:44;32.50;64.60
45137;DHT22;30894;51.740;19.498;2022-10-17T10:05:57;32.50;64.90
45137;DHT22;30894;51.740;19.498;2022-10-17T10:08:54;32.50;65.00
45137;DHT22;30894;51.740;19.498;2022-10-17T10:11:50;32.60;64.70
45137;DHT22;30894;51.740;19.498;2022-10-17T10:14:28;32.80;64.50
45137;DHT22;30894;51.740;19.498;2022-10-17T10:17:05;32.90;64.20
45137;DHT22;30894;51.740;19.498;2022-10-17T10:19:36;33.20;63.80
45137;DHT22;30894;51.740;19.498;2022-10-17T10:22:12;33.00;63.60
45137;DHT22;30894;51.740;19.498;2022-10-17T10:24:40;32.80;63.90
45137;DHT22;30894;51.740;19.498;2022-10-17T10:27:12;33.00;63.80
45137;DHT22;30894;51.740;19.498;2022-10-17T10:29:49;33.30;63.50
45137;DHT22;30894;51.740;19.498;2022-10-17T10:32:29;33.30;63.30
45137;DHT22;30894;51.740;19.498;2022-10-17T10:35:21;33.30;63.30
45137;DHT22;30894;51.740;19.498;2022-10-17T10:37:52;33.60;63.10
45137;DHT22;30894;51.740;19.498;2022-10-17T10:41:06;33.70;62.70
45137;DHT22;30894;51.740;19.498;2022-10-17T10:43:48;33.80;62.60
45137;DHT22;30894;51.740;19.498;2022-10-17T10:46:26;33.70;62.30
45137;DHT22;30894;51.740;19.498;2022-10-17T10:49:00;33.60;62.40
45137;DHT22;30894;51.740;19.498;2022-10-17T10:54:22;33.70;62.50
45137;DHT22;30894;51.740;19.498;2022-10-17T10:56:56;33.90;62.00
45137;DHT22;30894;51.740;19.498;2022-10-17T10:59:41;33.90;62.00
45137;DHT22;30894;51.740;19.498;2022-10-17T11:02:33;33.80;62.00
45137;DHT22;30894;51.740;19.498;2022-10-17T11:05:54;33.70;62.00
45137;DHT22;30894;51.740;19.498;2022-10-17T11:08:39;33.90;62.00
45137;DHT22;30894;51.740;19.498;2022-10-17T11:11:35;34.10;61.70
45137;DHT22;30894;51.740;19.498;2022-10-17T11:19:51;34.30;60.70
45137;DHT22;30894;51.740;19.498;2022-10-17T11:22:31;34.00;60.90
45137;DHT22;30894;51.740;19.498;2022-10-17T11:25:18;33.80;61.30
45137;DHT22;30894;51.740;19.498;2022-10-17T11:27:48;33.90;61.40
45137;DHT22;30894;51.740;19.498;2022-10-17T11:30:15;34.10;61.00
45137;DHT22;30894;51.740;19.498;2022-10-17T11:32:47;34.10;60.90
45137;DHT22;30894;51.740;19.498;2022-10-17T11:38:20;34.30;60.70
45137;DHT22;30894;51.740;19.498;2022-10-17T11:40:56;34.50;60.70
45137;DHT22;30894;51.740;19.498;2022-10-17T11:44:03;34.40;60.30
45137;DHT22;30894;51.740;19.498;2022-10-17T11:46:45;34.40;60.50
45137;DHT22;30894;51.740;19.498;2022-10-17T11:49:20;34.40;60.40
45137;DHT22;30894;51.740;19.498;2022-10-17T11:52:00;34.40;60.30
45137;DHT22;30894;51.740;19.498;2022-10-17T11:54:40;34.50;60.20
45137;DHT22;30894;51.740;19.498;2022-10-17T11:57:36;34.50;60.20
45137;DHT22;30894;51.740;19.498;2022-10-17T12:06:58;34.00;60.30
45137;DHT22;30894;51.740;19.498;2022-10-17T12:09:58;33.60;61.00
45137;DHT22;30894;51.740;19.498;2022-10-17T12:12:44;33.50;60.90
45137;DHT22;30894;51.740;19.498;2022-10-17T12:17:44;33.60;60.90
45137;DHT22;30894;51.740;19.498;2022-10-17T12:25:57;33.70;61.00
45137;DHT22;30894;51.740;19.498;2022-10-17T12:28:42;33.80;60.50
45137;DHT22;30894;51.740;19.498;2022-10-17T12:33:54;33.80;60.30
45137;DHT22;30894;51.740;19.498;2022-10-17T12:49:46;32.90;61.40
45137;DHT22;30894;51.740;19.498;2022-10-17T12:57:56;31.80;62.70
45137;DHT22;30894;51.740;19.498;2022-10-17T13:00:53;31.50;63.40
45137;DHT22;30894;51.740;19.498;2022-10-17T13:05:57;30.50;64.40
45137;DHT22;30894;51.740;19.498;2022-10-17T13:08:47;30.00;65.00
45137;DHT22;30894;51.740;19.498;2022-10-17T13:11:22;29.70;65.70
45137;DHT22;30894;51.740;19.498;2022-10-17T13:13:52;29.30;66.20
45137;DHT22;30894;51.740;19.498;2022-10-17T13:16:35;28.90;66.70
45137;DHT22;30894;51.740;19.498;2022-10-17T13:19:12;28.70;67.00
45137;DHT22;30894;51.740;19.498;2022-10-17T13:24:42;28.30;67.60
45137;DHT22;30894;51.740;19.498;2022-10-17T13:27:28;28.10;68.00
45137;DHT22;30894;51.740;19.498;2022-10-17T13:30:00;27.90;68.00
45137;DHT22;30894;51.740;19.498;2022-10-17T13:32:42;27.90;67.90
45137;DHT22;30894;51.740;19.498;2022-10-17T13:35:12;28.00;67.70
45137;DHT22;30894;51.740;19.498;2022-10-17T13:37:43;27.90;67.60
45137;DHT22;30894;51.740;19.498;2022-10-17T13:40:20;27.70;67.70
45137;DHT22;30894;51.740;19.498;2022-10-17T13:42:49;27.50;68.00
45137;DHT22;30894;51.740;19.498;2022-10-17T13:45:29;27.20;68.40
45137;DHT22;30894;51.740;19.498;2022-10-17T13:47:59;26.90;68.80
45137;DHT22;30894;51.740;19.498;2022-10-17T13:50:39;26.50;69.20
45137;DHT22;30894;51.740;19.498;2022-10-17T13:53:15;26.20;69.70
45137;DHT22;30894;51.740;19.498;2022-10-17T13:55:58;25.90;70.20
45137;DHT22;30894;51.740;19.498;2022-10-17T13:58:51;25.60;70.60
45137;DHT22;30894;51.740;19.498;2022-10-17T14:01:19;25.30;71.00
45137;DHT22;30894;51.740;19.498;2022-10-17T14:03:47;25.10;71.40
45137;DHT22;30894;51.740;19.498;2022-10-17T14:06:24;24.90;71.70
45137;DHT22;30894;51.740;19.498;2022-10-17T14:09:04;24.70;71.90
45137;DHT22;30894;51.740;19.498;2022-10-17T14:11:38;24.50;72.10
45137;DHT22;30894;51.740;19.498;2022-10-17T14:14:18;24.40;72.40
45137;DHT22;30894;51.740;19.498;2022-10-17T14:16:46;24.30;72.40
45137;DHT22;30894;51.740;19.498;2022-10-17T14:19:34;24.20;72.60
45137;DHT22;30894;51.740;19.498;2022-10-17T14:24:43;24.30;72.50
45137;DHT22;30894;51.740;19.498;2022-10-17T14:27:33;24.50;72.00
45137;DHT22;30894;51.740;19.498;2022-10-17T14:30:06;24.70;71.60
45137;DHT22;30894;51.740;19.498;2022-10-17T14:32:58;24.70;71.10
45137;DHT22;30894;51.740;19.498;2022-10-17T14:35:29;24.70;71.00
45137;DHT22;30894;51.740;19.498;2022-10-17T14:38:00;24.70;71.60
45137;DHT22;30894;51.740;19.498;2022-10-17T14:40:29;24.70;70.80
45137;DHT22;30894;51.740;19.498;2022-10-17T14:43:00;24.70;70.70
45137;DHT22;30894;51.740;19.498;2022-10-17T14:45:35;24.70;70.80
45137;DHT22;30894;51.740;19.498;2022-10-17T14:48:13;24.60;70.90
45137;DHT22;30894;51.740;19.498;2022-10-17T14:50:41;24.40;71.10
45137;DHT22;30894;51.740;19.498;2022-10-17T14:53:31;24.20;71.30
45137;DHT22;30894;51.740;19.498;2022-10-17T14:56:01;24.10;71.70
45137;DHT22;30894;51.740;19.498;2022-10-17T14:58:34;24.00;72.00
45137;DHT22;30894;51.740;19.498;2022-10-17T15:01:02;23.80;72.20
45137;DHT22;30894;51.740;19.498;2022-10-17T15:03:30;23.70;72.50
45137;DHT22;30894;51.740;19.498;2022-10-17T15:06:07;23.50;72.80
45137;DHT22;30894;51.740;19.498;2022-10-17T15:08:46;23.40;73.10
45137;DHT22;30894;51.740;19.498;2022-10-17T15:11:13;23.10;73.50
45137;DHT22;30894;51.740;19.498;2022-10-17T15:13:39;23.00;73.90
45137;DHT22;30894;51.740;19.498;2022-10-17T15:16:14;22.80;74.20
45137;DHT22;30894;51.740;19.498;2022-10-17T15:18:46;22.60;74.60
45137;DHT22;30894;51.740;19.498;2022-10-17T15:21:15;22.30;75.00
45137;DHT22;30894;51.740;19.498;2022-10-17T15:23:43;22.20;75.30
45137;DHT22;30894;51.740;19.498;2022-10-17T15:26:18;22.00;75.70
45137;DHT22;30894;51.740;19.498;2022-10-17T15:28:46;21.80;76.10
45137;DHT22;30894;51.740;19.498;2022-10-17T15:31:16;21.60;76.50
45137;DHT22;30894;51.740;19.498;2022-10-17T15:33:45;21.40;76.90
45137;DHT22;30894;51.740;19.498;2022-10-17T15:38:56;21.00;77.70
45137;DHT22;30894;51.740;19.498;2022-10-17T15:41:27;20.70;78.10
45137;DHT22;30894;51.740;19.498;2022-10-17T15:43:55;20.50;78.50
45137;DHT22;30894;51.740;19.498;2022-10-17T15:46:26;20.30;79.00
45137;DHT22;30894;51.740;19.498;2022-10-17T15:48:55;20.10;79.40
45137;DHT22;30894;51.740;19.498;2022-10-17T15:51:29;19.90;79.80
45137;DHT22;30894;51.740;19.498;2022-10-17T15:54:00;19.70;80.30
45137;DHT22;30894;51.740;19.498;2022-10-17T15:56:42;19.50;80.70
45137;DHT22;30894;51.740;19.498;2022-10-17T15:59:14;19.30;81.10
45137;DHT22;30894;51.740;19.498;2022-10-17T16:01:42;19.10;81.40
45137;DHT22;30894;51.740;19.498;2022-10-17T16:04:10;19.00;81.70
45137;DHT22;30894;51.740;19.498;2022-10-17T16:06:39;18.80;82.00
45137;DHT22;30894;51.740;19.498;2022-10-17T16:09:08;18.70;82.20
45137;DHT22;30894;51.740;19.498;2022-10-17T16:11:38;18.50;82.50
45137;DHT22;30894;51.740;19.498;2022-10-17T16:14:09;18.40;82.90
45137;DHT22;30894;51.740;19.498;2022-10-17T16:16:37;18.30;83.20
45137;DHT22;30894;51.740;19.498;2022-10-17T16:19:05;18.20;83.40
45137;DHT22;30894;51.740;19.498;2022-10-17T16:21:34;18.10;83.60
45137;DHT22;30894;51.740;19.498;2022-10-17T16:24:03;18.00;83.80
45137;DHT22;30894;51.740;19.498;2022-10-17T16:26:30;18.00;84.10
45137;DHT22;30894;51.740;19.498;2022-10-17T16:28:56;17.80;84.10
45137;DHT22;30894;51.740;19.498;2022-10-17T16:31:25;17.80;84.30
45137;DHT22;30894;51.740;19.498;2022-10-17T16:33:55;17.70;84.40
45137;DHT22;30894;51.740;19.498;2022-10-17T16:36:24;17.60;84.70
45137;DHT22;30894;51.740;19.498;2022-10-17T16:38:51;17.50;85.50
45137;DHT22;30894;51.740;19.498;2022-10-17T16:41:26;17.50;85.20
45137;DHT22;30894;51.740;19.498;2022-10-17T16:43:55;17.40;85.30
45137;DHT22;30894;51.740;19.498;2022-10-17T16:46:25;17.40;85.60
45137;DHT22;30894;51.740;19.498;2022-10-17T16:48:55;17.30;85.80
45137;DHT22;30894;51.740;19.498;2022-10-17T16:51:21;17.20;86.10
45137;DHT22;30894;51.740;19.498;2022-10-17T16:53:53;17.20;86.30
45137;DHT22;30894;51.740;19.498;2022-10-17T16:56:24;17.10;86.60
45137;DHT22;30894;51.740;19.498;2022-10-17T16:58:55;17.10;86.90
45137;DHT22;30894;51.740;19.498;2022-10-17T17:01:23;17.00;87.20
45137;DHT22;30894;51.740;19.498;2022-10-17T17:03:52;17.00;87.50
45137;DHT22;30894;51.740;19.498;2022-10-17T17:06:21;17.00;87.70
45137;DHT22;30894;51.740;19.498;2022-10-17T17:08:49;17.10;88.10
45137;DHT22;30894;51.740;19.498;2022-10-17T17:11:17;17.00;88.20
45137;DHT22;30894;51.740;19.498;2022-10-17T17:13:46;16.90;89.00
45137;DHT22;30894;51.740;19.498;2022-10-17T17:16:16;16.90;88.70
45137;DHT22;30894;51.740;19.498;2022-10-17T17:18:43;16.80;89.10
45137;DHT22;30894;51.740;19.498;2022-10-17T17:21:11;16.70;89.50
45137;DHT22;30894;51.740;19.498;2022-10-17T17:23:41;16.70;89.80
45137;DHT22;30894;51.740;19.498;2022-10-17T17:26:16;16.60;90.00
45137;DHT22;30894;51.740;19.498;2022-10-17T17:28:49;16.70;90.00
45137;DHT22;30894;51.740;19.498;2022-10-17T17:31:21;16.60;90.00
45137;DHT22;30894;51.740;19.498;2022-10-17T17:33:51;16.70;90.20
45137;DHT22;30894;51.740;19.498;2022-10-17T17:36:28;16.80;90.20